Weather History for St. Francis, KS

Change the Weather History Date:

Monday, March 25, 2013

  Actual Average Record
Temperature  
Mean Temperature 16 °F -  
Max Temperature 28 °F 58 °F 56 °F (2014)
Min Temperature 5 °F 28 °F 5 °F (2013)
Degree Days  
Heating Degree Days 48    
Moisture  
Dew Point 9 °F    
Average Humidity 74    
Maximum Humidity 83    
Minimum Humidity 60    
Precipitation  
Precipitation 0.00 in - - ()
Sea Level Pressure  
Sea Level Pressure 30.28 in    
Wind  
Wind Speed 8 mph (WNW)    
Max Wind Speed 16 mph    
Max Gust Speed 17 mph    
Visibility 10 miles    
Events      
Averages and records for this station are not official NWS values.
T = Trace of Precipitation, MM = Missing Value Source: NWS Daily Summary

Daily Weather History Graph

Daily Weather History Graph

Search for Another Location

Airport:

Trip Planner

Search our weather history database for the weather conditions in past years. The results will help you decide how hot, cold, wet, or windy it might be!

Date:

Astronomy

Mar. 25, 2013 Rise Set
Actual Time 7:42 AM CDT 8:04 PM CDT
Civil Twilight 7:15 AM CDT 8:31 PM CDT
Nautical Twilight 6:43 AM CDT 9:03 PM CDT
Astronomical Twilight 6:10 AM CDT 9:35 PM CDT
Moon 6:38 PM CDT (3/25) 6:26 AM CDT (3/25)
Length of Visible Light 13h 16m
Length of Day
12h 22m
Waxing Gibbous, 96% of the Moon is Illuminated
Mar 25
Waxing Gibbous
Mar 27
Full
Apr 2
Last Quarter
Apr 10
New
Apr 18
First Quarter

Hourly Weather History & Observations

Time (CDT) Temp. Windchill Dew Point Humidity Pressure Visibility Wind Dir Wind Speed Gust Speed Precip Events Conditions
12:15 AM 12.6 °F 1.1 °F 6.3 °F 76% 30.23 in 10.0 mi NW 8.1 mph - N/A   Clear
12:35 AM 12.0 °F 1.5 °F 5.9 °F 76% 30.24 in 10.0 mi NNW 6.9 mph - N/A   Clear
12:55 AM 12.2 °F 0.7 °F 6.1 °F 76% 30.24 in 10.0 mi NW 8.1 mph - N/A   Clear
1:15 AM 12.2 °F 0.7 °F 6.1 °F 76% 30.24 in 10.0 mi NW 8.1 mph - N/A   Clear
1:35 AM 11.7 °F -0.9 °F 5.7 °F 77% 30.25 in 10.0 mi WNW 9.2 mph - N/A   Clear
1:55 AM 10.9 °F -0.8 °F 5.4 °F 78% 30.25 in 10.0 mi WNW 8.1 mph - N/A   Clear
2:15 AM 9.5 °F -2.6 °F 4.5 °F 80% 30.25 in 10.0 mi West 8.1 mph - N/A   Clear
2:35 AM 10.2 °F -1.7 °F 4.6 °F 78% 30.26 in 10.0 mi West 8.1 mph - N/A   Clear
2:55 AM 10.6 °F -0.2 °F 4.6 °F 77% 30.26 in 10.0 mi WNW 6.9 mph - N/A   Clear
3:15 AM 9.5 °F 1.2 °F 3.9 °F 78% 30.26 in 10.0 mi NW 4.6 mph - N/A   Clear
3:35 AM 9.5 °F -2.6 °F 4.1 °F 79% 30.26 in 10.0 mi WNW 8.1 mph - N/A   Clear
4:15 AM 9.0 °F 2.4 °F 3.4 °F 78% 30.26 in 10.0 mi West 3.5 mph - N/A   Scattered Clouds
4:35 AM 9.3 °F -2.8 °F 4.3 °F 80% 30.26 in 10.0 mi WNW 8.1 mph - N/A   Clear
4:55 AM 8.1 °F -5.3 °F 3.4 °F 81% 30.26 in 10.0 mi WNW 9.2 mph - N/A   Clear
5:15 AM 5.9 °F -5.8 °F 1.6 °F 82% 30.26 in 10.0 mi West 6.9 mph - N/A   Clear
5:35 AM 8.6 °F -2.6 °F 3.6 °F 80% 30.27 in 10.0 mi West 6.9 mph - N/A   Clear
5:55 AM 8.4 °F -2.8 °F 3.4 °F 80% 30.28 in 10.0 mi West 6.9 mph - N/A   Clear
6:15 AM 7.7 °F -0.9 °F 3.0 °F 81% 30.28 in 10.0 mi West 4.6 mph - N/A   Clear
6:35 AM 7.3 °F -4.1 °F 2.5 °F 81% 30.28 in 10.0 mi West 6.9 mph - N/A   Clear
6:55 AM 7.7 °F -4.8 °F 2.8 °F 81% 30.28 in 10.0 mi WNW 8.1 mph - N/A   Clear
7:15 AM 7.7 °F -4.8 °F 2.5 °F 79% 30.28 in 10.0 mi NW 8.1 mph - N/A   Clear
7:35 AM 7.7 °F -4.8 °F 2.7 °F 80% 30.29 in 10.0 mi West 8.1 mph - N/A   Clear
8:15 AM 7.2 °F -6.4 °F 2.3 °F 80% 30.30 in 10.0 mi West 9.2 mph - N/A   Clear
8:35 AM 7.5 °F -6.0 °F 2.5 °F 80% 30.30 in 10.0 mi West 9.2 mph - N/A   Clear
8:55 AM 7.9 °F -4.6 °F 2.5 °F 79% 30.30 in 10.0 mi West 8.1 mph - N/A   Clear
9:15 AM 8.1 °F -3.2 °F 2.7 °F 79% 30.31 in 10.0 mi WSW 6.9 mph - N/A   Clear
9:55 AM 10.4 °F 0.8 °F 4.8 °F 78% 30.32 in 10.0 mi West 5.8 mph - N/A   Clear
10:15 AM 13.3 °F 1.1 °F 6.8 °F 75% 30.32 in 10.0 mi WNW 9.2 mph - N/A   Clear
10:35 AM 14.9 °F 3.1 °F 7.7 °F 73% 30.33 in 10.0 mi NW 9.2 mph - N/A   Clear
10:55 AM 15.8 °F 4.2 °F 8.6 °F 73% 30.33 in 10.0 mi NW 9.2 mph - N/A   Clear
11:15 AM 17.2 °F 5.2 °F 9.7 °F 72% 30.33 in 10.0 mi WNW 10.4 mph - N/A   Clear
11:35 AM 18.1 °F 7.1 °F 10.4 °F 72% 30.33 in 10.0 mi WNW 9.2 mph - N/A   Clear
11:55 AM 18.5 °F 6.1 °F 10.4 °F 71% 30.33 in 10.0 mi NW 11.5 mph - N/A   Clear
12:15 PM 19.6 °F 6.8 °F 11.1 °F 70% 30.33 in 10.0 mi WNW 12.7 mph 16.1 mph N/A   Clear
12:35 PM 20.7 °F 9.5 °F 11.3 °F 67% 30.33 in 10.0 mi NW 10.4 mph - N/A   Clear
12:55 PM 21.4 °F 9.1 °F 11.8 °F 67% 30.32 in 10.0 mi WNW 12.7 mph 17.3 mph N/A   Clear
1:15 PM 22.1 °F 10.0 °F 11.1 °F 63% 30.32 in 10.0 mi NW 12.7 mph - N/A   Clear
1:35 PM 23.0 °F 11.1 °F 11.8 °F 62% 30.31 in 10.0 mi WNW 12.7 mph - N/A   Clear
1:55 PM 23.9 °F 12.9 °F 12.2 °F 61% 30.31 in 10.0 mi WNW 11.5 mph 17.3 mph N/A   Clear
2:15 PM 24.8 °F 11.9 °F 13.1 °F 61% 30.31 in 10.0 mi WNW 16.1 mph - N/A   Clear
2:35 PM 24.8 °F 12.9 °F 13.1 °F 61% 30.30 in 10.0 mi WNW 13.8 mph - N/A   Clear
2:55 PM 25.3 °F 13.1 °F 13.8 °F 62% 30.30 in 10.0 mi WNW 15.0 mph - N/A   Clear
3:15 PM 25.7 °F 14.0 °F 14.4 °F 62% 30.30 in 10.0 mi NW 13.8 mph 17.3 mph N/A   Clear
3:35 PM 26.1 °F 14.5 °F 14.7 °F 62% 30.29 in 10.0 mi WNW 13.8 mph - N/A   Clear
3:55 PM 26.6 °F 15.7 °F 14.9 °F 61% 30.28 in 10.0 mi WNW 12.7 mph - N/A   Clear
4:15 PM 26.8 °F 17.1 °F 14.9 °F 61% 30.28 in 10.0 mi NW 10.4 mph - N/A   Clear
4:35 PM 27.5 °F 18.0 °F 15.3 °F 60% 30.28 in 10.0 mi NW 10.4 mph - N/A   Clear
4:55 PM 27.7 °F 18.2 °F 16.0 °F 62% 30.27 in 10.0 mi WNW 10.4 mph - N/A   Clear
5:15 PM 28.2 °F 19.5 °F 15.8 °F 60% 30.27 in 10.0 mi WNW 9.2 mph - N/A   Clear
5:35 PM 28.4 °F 19.7 °F 16.7 °F 62% 30.26 in 10.0 mi WNW 9.2 mph - N/A   Clear
6:15 PM 28.4 °F 19.7 °F 17.1 °F 63% 30.26 in 10.0 mi WNW 9.2 mph - N/A   Clear
6:55 PM 27.5 °F 21.1 °F 17.8 °F 67% 30.26 in 10.0 mi West 5.8 mph - N/A   Clear
7:15 PM 26.8 °F 20.2 °F 17.6 °F 68% 30.27 in 10.0 mi West 5.8 mph - N/A   Clear
7:35 PM 25.5 °F 19.9 °F 17.6 °F 72% 30.27 in 10.0 mi West 4.6 mph - N/A   Clear
7:55 PM 23.4 °F 17.4 °F 16.7 °F 76% 30.28 in 10.0 mi West 4.6 mph - N/A   Clear
8:15 PM 22.5 °F 16.3 °F 16.7 °F 79% 30.28 in 10.0 mi West 4.6 mph - N/A   Clear
8:35 PM 21.2 °F 16.4 °F 16.3 °F 82% 30.27 in 10.0 mi WSW 3.5 mph - N/A   Clear
8:55 PM 19.9 °F 11.1 °F 14.7 °F 80% 30.27 in 10.0 mi SW 6.9 mph - N/A   Clear
9:15 PM 18.5 °F 9.3 °F 14.0 °F 83% 30.28 in 10.0 mi SW 6.9 mph - N/A   Clear
9:35 PM 17.8 °F 9.6 °F 13.1 °F 82% 30.28 in 10.0 mi SW 5.8 mph - N/A   Clear
9:55 PM 17.6 °F 9.3 °F 13.1 °F 83% 30.28 in 10.0 mi SSW 5.8 mph - N/A   Clear
10:15 PM 17.6 °F 7.3 °F 12.6 °F 81% 30.29 in 10.0 mi SSW 8.1 mph - N/A   Clear
10:35 PM 16.5 °F 5.1 °F 11.1 °F 79% 30.29 in 10.0 mi SW 9.2 mph - N/A   Clear
10:55 PM 17.1 °F 6.6 °F 11.3 °F 78% 30.29 in 10.0 mi SW 8.1 mph - N/A   Clear
11:15 PM 16.9 °F 6.4 °F 11.1 °F 78% 30.29 in 10.0 mi SW 8.1 mph - N/A   Clear
11:35 PM 14.9 °F 4.0 °F 9.9 °F 80% 30.29 in 10.0 mi SW 8.1 mph - N/A   Clear
11:55 PM 14.9 °F 4.0 °F 10.0 °F 81% 30.30 in 10.0 mi SW 8.1 mph - N/A   Clear